Time;durP1;ratioP1;P1;durP2;ratioP2;P2;SDS_P1;SDS_P2;PMS_P1;PMS_P2;Temp;Humidity;BMP_temperature;BMP_pressure;BME280_temperature;BME280_humidity;BME280_pressure;Samples;Min_cycle;Max_cycle;Signal;HPM_P1;HPM_P2
2020/12/23 00:00:50;;;;;;;5.57;2.45;;;;;;;9.94;97.31;96669.44;4869550;29;20049;-74
2020/12/23 00:03:16;;;;;;;2.78;2.17;;;;;;;9.92;97.20;96666.22;4866728;29;20394;-73
2020/12/23 00:05:42;;;;;;;2.95;2.42;;;;;;;9.90;97.20;96668.25;4869289;29;20494;-73
2020/12/23 00:08:08;;;;;;;2.53;2.03;;;;;;;9.87;97.34;96673.91;4873236;29;20049;-74
2020/12/23 00:10:34;;;;;;;6.13;2.00;;;;;;;9.89;97.57;96679.75;4868133;29;20083;-74
2020/12/23 00:13:01;;;;;;;6.05;2.47;;;;;;;9.90;97.56;96683.97;4867691;29;20037;-74
2020/12/23 00:15:27;;;;;;;2.10;1.70;;;;;;;9.89;97.60;96685.00;4866753;29;20041;-73
2020/12/23 00:17:53;;;;;;;1.98;1.75;;;;;;;9.93;97.98;96683.56;4874698;29;20053;-73
2020/12/23 00:20:19;;;;;;;2.42;1.80;;;;;;;9.99;98.08;96681.13;4866742;29;20477;-73
2020/12/23 00:22:46;;;;;;;3.72;1.80;;;;;;;10.06;98.01;96679.28;4867609;29;20414;-73
2020/12/23 00:25:12;;;;;;;2.75;1.52;;;;;;;10.10;98.08;96680.44;4871448;29;20471;-74
2020/12/23 00:27:38;;;;;;;1.50;1.40;;;;;;;10.13;97.97;96675.59;4873214;29;20040;-74
2020/12/23 00:30:04;;;;;;;2.55;1.48;;;;;;;10.18;97.79;96676.78;4867682;29;20045;-74
2020/12/23 00:32:30;;;;;;;2.40;1.77;;;;;;;10.21;97.53;96674.56;4873543;29;20045;-74
2020/12/23 00:34:57;;;;;;;1.52;1.42;;;;;;;10.25;97.36;96677.59;4875273;29;20048;-74
2020/12/23 00:37:23;;;;;;;2.50;1.25;;;;;;;10.27;97.25;96678.97;4874150;29;20049;-73
2020/12/23 00:39:50;;;;;;;3.15;1.52;;;;;;;10.30;97.14;96683.81;4874528;29;20045;-74
2020/12/23 00:42:20;;;;;;;1.60;1.50;;;;;;;10.31;97.03;96689.84;4873207;29;20080;-73
2020/12/23 00:44:46;;;;;;;1.85;1.58;;;;;;;10.30;96.92;96673.31;4852534;29;20053;-74
2020/12/23 00:47:12;;;;;;;3.20;1.50;;;;;;;10.31;96.80;96674.13;4875875;29;20393;-74
2020/12/23 00:49:38;;;;;;;4.53;1.80;;;;;;;10.30;96.80;96675.94;4873535;29;20076;-73
2020/12/23 00:52:04;;;;;;;2.92;1.60;;;;;;;10.32;96.65;96678.38;4866507;29;20037;-74
2020/12/23 00:54:30;;;;;;;2.95;1.70;;;;;;;10.31;96.87;96680.19;4851366;29;20060;-73
2020/12/23 00:56:56;;;;;;;2.47;1.50;;;;;;;10.29;96.75;96682.22;4874180;29;20049;-73
2020/12/23 00:59:23;;;;;;;2.00;1.80;;;;;;;10.29;96.82;96676.97;4873436;29;20509;-73
2020/12/23 01:01:49;;;;;;;1.40;1.30;;;;;;;10.29;96.93;96679.59;4874277;29;20045;-73
2020/12/23 01:04:15;;;;;;;2.20;1.60;;;;;;;10.27;96.97;96676.34;4868174;29;20041;-73
2020/12/23 01:06:41;;;;;;;1.70;1.60;;;;;;;10.27;97.03;96678.97;4872660;29;20042;-73
2020/12/23 01:09:07;;;;;;;2.65;1.50;;;;;;;10.26;97.15;96671.31;4873952;29;20052;-74
2020/12/23 01:11:33;;;;;;;1.55;1.45;;;;;;;10.26;97.15;96668.69;4874275;29;20041;-73
2020/12/23 01:13:59;;;;;;;1.90;1.52;;;;;;;10.25;97.11;96673.13;4867924;29;20482;-74
2020/12/23 01:16:25;;;;;;;4.05;1.70;;;;;;;10.28;97.12;96674.53;4869132;29;20066;-74
2020/12/23 01:18:52;;;;;;;1.65;1.55;;;;;;;10.28;96.96;96680.56;4875612;29;20049;-74
2020/12/23 01:21:18;;;;;;;3.38;1.60;;;;;;;10.26;97.14;96674.72;4876537;29;20061;-74
2020/12/23 01:23:44;;;;;;;1.70;1.40;;;;;;;10.28;97.03;96672.69;4872538;29;20049;-74
2020/12/23 01:26:10;;;;;;;2.70;1.73;;;;;;;10.28;97.15;96671.91;4869561;29;20053;-74
2020/12/23 01:28:37;;;;;;;2.40;1.70;;;;;;;10.28;97.29;96674.53;4870691;29;20038;-73
2020/12/23 01:31:05;;;;;;;2.28;1.75;;;;;;;10.28;97.26;96679.78;4877145;29;20046;-74
2020/12/23 01:33:32;;;;;;;4.28;1.67;;;;;;;10.29;97.22;96676.13;4856276;29;20056;-74
2020/12/23 01:35:58;;;;;;;2.72;1.70;;;;;;;10.29;97.07;96671.75;4867591;29;20474;-74
2020/12/23 01:38:24;;;;;;;4.38;2.05;;;;;;;10.27;97.38;96675.56;4868227;29;20375;-74
2020/12/23 01:40:59;;;;;;;1.90;1.80;;;;;;;10.28;97.32;96672.69;4872325;29;20057;-74
2020/12/23 01:43:25;;;;;;;1.98;1.55;;;;;;;10.28;97.39;96672.69;4871014;29;20467;-73
2020/12/23 01:45:51;;;;;;;3.38;1.60;;;;;;;10.29;97.28;96671.75;4873373;29;20057;-74
2020/12/23 01:48:21;;;;;;;2.60;1.55;;;;;;;10.29;97.24;96665.63;4854306;29;20044;-73
2020/12/23 01:50:48;;;;;;;2.17;1.77;;;;;;;10.29;97.22;96666.50;4867174;29;20033;-73
2020/12/23 01:53:16;;;;;;;1.42;1.33;;;;;;;10.30;97.19;96665.47;4869803;29;20495;-73
2020/12/23 01:55:46;;;;;;;1.95;1.60;;;;;;;10.29;97.34;96671.75;4872087;29;20049;-73
2020/12/23 01:58:13;;;;;;;2.65;1.73;;;;;;;10.27;97.26;96663.25;4873315;29;20494;-74
2020/12/23 02:00:43;;;;;;;3.42;1.55;;;;;;;10.28;97.27;96664.84;4873324;29;20037;-74
2020/12/23 02:03:10;;;;;;;3.67;1.95;;;;;;;10.27;97.50;96659.84;4872743;29;20394;-74
2020/12/23 02:05:37;;;;;;;1.90;1.80;;;;;;;10.25;97.52;96644.31;4865866;29;20052;-74
2020/12/23 02:08:03;;;;;;;1.95;1.75;;;;;;;10.25;97.46;96649.56;4872966;29;20398;-73
2020/12/23 02:10:32;;;;;;;1.60;1.50;;;;;;;10.26;97.46;96645.91;4871523;29;20038;-73
2020/12/23 02:12:58;;;;;;;1.35;1.23;;;;;;;10.25;97.24;96643.50;4871236;29;20060;-73
2020/12/23 02:15:24;;;;;;;3.40;1.40;;;;;;;10.25;97.43;96641.69;4873178;29;20473;-74
2020/12/23 02:17:51;;;;;;;3.28;1.60;;;;;;;10.23;97.31;96641.09;4870586;29;20061;-74
2020/12/23 02:20:17;;;;;;;1.88;1.52;;;;;;;10.22;97.55;96631.59;4860323;29;20056;-74
2020/12/23 02:22:46;;;;;;;3.83;1.67;;;;;;;10.21;97.62;96645.75;4873062;29;20045;-74
2020/12/23 02:25:13;;;;;;;2.58;1.58;;;;;;;10.20;97.48;96632.84;4869083;29;20052;-74
2020/12/23 02:27:40;;;;;;;1.67;1.58;;;;;;;10.19;97.47;96629.41;4870168;29;20494;-73
2020/12/23 02:30:08;;;;;;;2.05;1.60;;;;;;;10.20;97.69;96630.22;4877471;29;20391;-74
2020/12/23 02:32:34;;;;;;;2.38;1.45;;;;;;;10.20;97.69;96615.28;4872754;29;20052;-73
2020/12/23 02:35:23;;;;;;;1.10;1.08;;;;;;;10.20;97.77;96617.13;4871896;29;20045;-73
2020/12/23 02:37:56;;;;;;;1.30;1.20;;;;;;;10.22;97.13;96615.88;4865680;29;20466;-73
2020/12/23 02:40:37;;;;;;;1.20;1.10;;;;;;;10.23;97.35;96620.13;4870573;29;20050;-75
2020/12/23 02:43:16;;;;;;;4.47;1.10;;;;;;;10.25;97.16;96612.06;4868007;29;20053;-73
2020/12/23 02:45:50;;;;;;;1.70;1.30;;;;;;;10.28;96.89;96595.91;4860197;29;20049;-73
2020/12/23 02:48:34;;;;;;;1.15;1.05;;;;;;;10.32;96.40;96603.16;4866440;29;20506;-73
2020/12/23 02:51:16;;;;;;;1.77;1.05;;;;;;;10.35;96.18;96594.88;4856775;29;20038;-73
2020/12/23 02:53:58;;;;;;;2.95;1.30;;;;;;;10.39;95.93;96592.59;4871202;29;20049;-74
2020/12/23 02:56:39;;;;;;;2.03;1.35;;;;;;;10.41;95.97;96587.16;4870251;29;20052;-73
2020/12/23 02:59:11;;;;;;;1.23;1.10;;;;;;;10.41;95.70;96587.97;4866140;29;20490;-73
2020/12/23 03:01:41;;;;;;;2.42;1.30;;;;;;;10.40;96.03;96586.38;4865061;29;20060;-74
2020/12/23 03:04:09;;;;;;;1.67;1.38;;;;;;;10.41;96.02;96590.59;4875913;29;20052;-74
2020/12/23 03:06:38;;;;;;;4.25;1.77;;;;;;;10.41;96.01;96600.28;4867621;29;20053;-74
2020/12/23 03:09:10;;;;;;;2.08;1.70;;;;;;;10.41;95.59;96592.41;4869946;29;20045;-74
2020/12/23 03:11:37;;;;;;;2.47;1.88;;;;;;;10.40;96.12;96596.84;4868747;29;20049;-74
2020/12/23 03:14:09;;;;;;;1.50;1.40;;;;;;;10.41;96.15;96595.03;4862289;29;20501;-73
2020/12/23 03:16:42;;;;;;;2.47;1.70;;;;;;;10.40;96.18;96593.44;4869472;29;20405;-73
2020/12/23 03:19:14;;;;;;;1.50;1.30;;;;;;;10.40;96.21;96594.22;4869057;29;20045;-74
2020/12/23 03:22:09;;;;;;;1.33;1.17;;;;;;;10.39;95.36;96587.38;4848484;29;20057;-73
2020/12/23 03:24:41;;;;;;;1.30;1.20;;;;;;;10.38;95.72;96580.53;4868440;29;20060;-75
2020/12/23 03:27:23;;;;;;;1.30;1.20;;;;;;;10.39;95.44;96583.94;4871856;29;20486;-74
2020/12/23 03:29:58;;;;;;;1.35;1.20;;;;;;;10.40;95.41;96588.19;4870616;29;20057;-74
2020/12/23 03:32:35;;;;;;;1.83;1.30;;;;;;;10.39;95.42;96576.88;4866963;29;20044;-73
2020/12/23 03:35:08;;;;;;;1.58;1.48;;;;;;;10.39;95.78;96569.00;4866655;29;20061;-74
2020/12/23 03:37:49;;;;;;;2.65;1.65;;;;;;;10.40;95.56;96572.47;4853805;29;20054;-73
2020/12/23 03:40:16;;;;;;;1.65;1.40;;;;;;;10.38;95.52;96564.00;4845459;29;20048;-73
2020/12/23 03:42:42;;;;;;;1.40;1.30;;;;;;;10.38;95.71;96564.81;4866829;29;20056;-74
2020/12/23 03:45:08;;;;;;;1.42;1.33;;;;;;;10.38;95.74;96553.53;4870137;29;20526;-74
2020/12/23 03:47:34;;;;;;;1.67;1.50;;;;;;;10.36;95.82;96551.09;4875078;29;20076;-73
2020/12/23 03:50:00;;;;;;;1.60;1.50;;;;;;;10.37;95.56;96547.47;4871223;29;20060;-73
2020/12/23 03:52:26;;;;;;;1.50;1.40;;;;;;;10.35;95.83;96547.69;4866728;29;20041;-74
2020/12/23 03:54:53;;;;;;;2.63;1.70;;;;;;;10.34;95.64;96546.06;4869407;29;20045;-74
2020/12/23 03:57:19;;;;;;;3.28;1.55;;;;;;;10.34;95.57;96540.03;4871584;29;20033;-73
2020/12/23 03:59:45;;;;;;;1.50;1.30;;;;;;;10.32;95.63;96539.44;4872520;29;20041;-73
2020/12/23 04:02:11;;;;;;;1.63;1.35;;;;;;;10.31;95.72;96541.25;4872012;29;20044;-74
2020/12/23 04:04:37;;;;;;;2.05;1.60;;;;;;;10.31;95.61;96546.50;4871794;29;20045;-74
2020/12/23 04:07:03;;;;;;;1.40;1.27;;;;;;;10.31;95.79;96557.00;4877883;29;20430;-74
2020/12/23 04:09:29;;;;;;;2.83;1.48;;;;;;;10.30;95.52;96547.50;4871291;29;20406;-74
2020/12/23 04:11:55;;;;;;;2.30;1.50;;;;;;;10.30;95.54;96539.66;4873472;29;20045;-73
2020/12/23 04:14:22;;;;;;;2.28;1.50;;;;;;;10.30;95.63;96541.47;4870742;29;20041;-74
2020/12/23 04:16:48;;;;;;;3.10;1.40;;;;;;;10.26;95.68;96535.81;4878152;29;20497;-73
2020/12/23 04:19:14;;;;;;;6.03;2.30;;;;;;;10.25;95.58;96530.81;4875351;29;20057;-74
2020/12/23 04:21:41;;;;;;;3.28;1.73;;;;;;;10.25;95.66;96536.84;4853414;29;20049;-74
2020/12/23 04:24:07;;;;;;;2.58;1.45;;;;;;;10.24;95.45;96534.44;4870293;29;20058;-74
2020/12/23 04:26:33;;;;;;;3.53;1.70;;;;;;;10.22;95.70;96534.63;4877965;29;20041;-73
2020/12/23 04:28:59;;;;;;;2.08;1.60;;;;;;;10.23;95.81;96543.31;4875719;29;20037;-73
2020/12/23 04:31:25;;;;;;;3.05;1.88;;;;;;;10.21;95.63;96538.28;4864346;29;20048;-74
2020/12/23 04:33:51;;;;;;;1.50;1.40;;;;;;;10.22;95.68;96532.00;4875594;29;20400;-74
2020/12/23 04:36:18;;;;;;;3.88;1.52;;;;;;;10.21;94.92;96527.00;4875058;29;20439;-73
2020/12/23 04:38:44;;;;;;;2.97;1.33;;;;;;;10.22;94.99;96526.78;4868691;29;20512;-74
2020/12/23 04:41:10;;;;;;;2.67;1.60;;;;;;;10.24;95.03;96534.44;4872079;29;20056;-74
2020/12/23 04:43:36;;;;;;;1.40;1.30;;;;;;;10.22;95.29;96534.63;4876361;29;20050;-73
2020/12/23 04:46:02;;;;;;;5.30;1.60;;;;;;;10.21;95.10;96530.41;4870490;29;20064;-74
2020/12/23 04:48:33;;;;;;;2.92;1.33;;;;;;;10.20;94.56;96523.56;4869805;29;20505;-74
2020/12/23 04:51:04;;;;;;;1.88;1.65;;;;;;;10.19;94.79;96524.59;4875021;29;20049;-74
2020/12/23 04:53:31;;;;;;;3.05;1.40;;;;;;;10.18;94.62;96520.34;4874206;29;20068;-73
2020/12/23 04:55:57;;;;;;;1.70;1.60;;;;;;;10.17;94.66;96516.13;4866545;29;20501;-74
2020/12/23 04:58:23;;;;;;;2.70;1.45;;;;;;;10.16;94.73;96519.75;4872823;29;20068;-75
2020/12/23 05:00:50;;;;;;;2.92;1.83;;;;;;;10.14;94.60;96513.94;4872634;29;20049;-74
2020/12/23 05:03:16;;;;;;;1.65;1.45;;;;;;;10.14;94.71;96522.63;4875321;29;20037;-74
2020/12/23 05:05:42;;;;;;;2.78;1.40;;;;;;;10.14;94.64;96512.13;4869620;29;20410;-73
2020/12/23 05:08:09;;;;;;;1.50;1.40;;;;;;;10.14;94.93;96509.50;4870613;29;20048;-73
2020/12/23 05:10:37;;;;;;;1.95;1.40;;;;;;;10.15;94.93;96511.09;4870719;29;20045;-74
2020/12/23 05:13:04;;;;;;;4.15;1.77;;;;;;;10.15;94.50;96513.72;4870402;29;20418;-74
2020/12/23 05:15:30;;;;;;;3.30;1.58;;;;;;;10.15;94.49;96505.06;4876207;29;20037;-74
2020/12/23 05:18:01;;;;;;;3.47;1.52;;;;;;;10.16;94.20;96504.88;4871779;29;20041;-74
2020/12/23 05:20:27;;;;;;;3.15;1.50;;;;;;;10.13;94.31;96496.63;4871953;29;20040;-74
2020/12/23 05:22:54;;;;;;;3.58;1.63;;;;;;;10.14;94.26;96506.88;4872010;29;20049;-73
2020/12/23 05:25:20;;;;;;;2.75;1.42;;;;;;;10.12;94.36;96502.84;4870809;29;20060;-74
2020/12/23 05:27:50;;;;;;;4.03;1.67;;;;;;;10.10;93.95;96495.22;4872268;29;20471;-74
2020/12/23 05:30:19;;;;;;;4.90;1.80;;;;;;;10.11;94.12;96490.78;4873137;29;20400;-73
2020/12/23 05:32:47;;;;;;;1.45;1.35;;;;;;;10.10;94.08;96497.03;4876755;29;20041;-74
2020/12/23 05:35:15;;;;;;;2.05;1.83;;;;;;;10.09;94.20;96498.06;4870367;29;20045;-73
2020/12/23 05:37:42;;;;;;;1.85;1.67;;;;;;;10.10;94.29;96510.13;4871147;29;20037;-73
2020/12/23 05:40:08;;;;;;;2.42;1.60;;;;;;;10.09;93.94;96492.81;4873299;29;20041;-73
2020/12/23 05:42:37;;;;;;;3.50;1.80;;;;;;;10.10;93.96;96499.66;4868590;29;20064;-73
2020/12/23 05:45:06;;;;;;;2.53;2.03;;;;;;;10.10;94.19;96503.09;4873680;29;20057;-74
2020/12/23 05:47:33;;;;;;;2.55;1.27;;;;;;;10.11;93.83;96502.06;4873983;29;20498;-74
2020/12/23 05:49:59;;;;;;;1.98;1.67;;;;;;;10.12;93.58;96500.22;4865879;29;20037;-74
2020/12/23 05:52:25;;;;;;;5.82;1.70;;;;;;;10.12;93.71;96506.31;4871105;29;20049;-74
2020/12/23 05:54:53;;;;;;;1.27;1.17;;;;;;;10.12;93.70;96505.47;4869762;29;20406;-74
2020/12/23 05:57:20;;;;;;;1.73;1.50;;;;;;;10.12;93.70;96501.06;4875510;29;20041;-74
2020/12/23 05:59:46;;;;;;;2.45;1.98;;;;;;;10.12;93.91;96493.19;4874018;29;20060;-73
2020/12/23 06:02:13;;;;;;;1.60;1.50;;;;;;;10.11;93.36;96493.41;4854035;29;20052;-74
2020/12/23 06:04:44;;;;;;;1.50;1.40;;;;;;;10.09;93.06;96484.94;4870595;29;20072;-74
2020/12/23 06:07:11;;;;;;;2.35;1.80;;;;;;;10.06;93.23;96485.41;4869455;29;20045;-73
2020/12/23 06:09:48;;;;;;;2.65;1.60;;;;;;;10.03;93.10;96485.81;4870500;29;20053;-74
2020/12/23 06:12:17;;;;;;;2.03;1.77;;;;;;;10.00;93.16;96479.19;4873692;29;20045;-73
2020/12/23 06:14:57;;;;;;;2.08;1.90;;;;;;;9.99;92.99;96471.53;4867548;29;20057;-73
2020/12/23 06:17:25;;;;;;;3.15;1.52;;;;;;;9.96;92.89;96476.16;4869372;29;20053;-73
2020/12/23 06:19:57;;;;;;;2.63;1.85;;;;;;;9.95;92.51;96466.72;4874822;29;20029;-73
2020/12/23 06:22:25;;;;;;;2.17;1.73;;;;;;;9.93;92.86;96473.16;4873022;29;20052;-73
2020/12/23 06:24:51;;;;;;;2.50;1.90;;;;;;;9.93;92.95;96478.41;4869552;29;20394;-73
2020/12/23 06:27:17;;;;;;;3.10;2.00;;;;;;;9.92;92.68;96468.97;4869612;29;20041;-74
2020/12/23 06:29:45;;;;;;;3.33;2.30;;;;;;;9.92;92.44;96475.00;4871502;29;20046;-74
2020/12/23 06:32:24;;;;;;;4.53;2.10;;;;;;;9.90;92.48;96471.78;4872702;29;20049;-74
2020/12/23 06:34:56;;;;;;;3.35;1.85;;;;;;;9.89;92.26;96474.59;4874247;29;20036;-73
2020/12/23 06:37:25;;;;;;;2.22;2.03;;;;;;;9.86;92.29;96465.34;4869178;29;20025;-73
2020/12/23 06:39:53;;;;;;;3.45;2.42;;;;;;;9.86;92.40;96467.97;4867331;29;20469;-74
2020/12/23 06:42:19;;;;;;;4.13;2.15;;;;;;;9.85;92.32;96461.16;4870843;29;20064;-73
2020/12/23 06:44:45;;;;;;;3.50;2.92;;;;;;;9.86;92.43;96464.56;4872567;29;20057;-74
2020/12/23 06:47:21;;;;;;;4.65;2.53;;;;;;;9.85;92.25;96452.47;4876728;29;20053;-73
2020/12/23 06:49:53;;;;;;;3.65;2.70;;;;;;;9.84;92.28;96453.50;4857120;29;20041;-73
2020/12/23 06:52:26;;;;;;;3.17;2.58;;;;;;;9.85;92.39;96457.72;4867694;29;20045;-74
2020/12/23 06:54:57;;;;;;;4.38;2.90;;;;;;;9.84;92.33;96459.53;4873572;29;20053;-74
2020/12/23 06:57:39;;;;;;;3.53;3.00;;;;;;;9.84;91.92;96459.53;4872075;29;20433;-73
2020/12/23 07:00:23;;;;;;;4.95;3.55;;;;;;;9.81;92.23;96449.50;4869840;29;20037;-74
2020/12/23 07:02:56;;;;;;;3.83;3.15;;;;;;;9.80;92.07;96458.34;4873530;29;20430;-73
2020/12/23 07:05:22;;;;;;;6.10;3.85;;;;;;;9.78;92.20;96462.19;4874271;29;20040;-74
2020/12/23 07:07:53;;;;;;;4.25;3.85;;;;;;;9.77;92.16;96452.75;4865067;29;20041;-74
2020/12/23 07:10:24;;;;;;;4.95;3.72;;;;;;;9.75;92.08;96472.09;4870721;29;20038;-74
2020/12/23 07:12:55;;;;;;;4.72;3.78;;;;;;;9.74;92.37;96460.03;4873522;29;20038;-74
2020/12/23 07:15:39;;;;;;;4.68;3.22;;;;;;;9.74;92.44;96456.56;4875363;29;20048;-73
2020/12/23 07:18:08;;;;;;;3.50;3.20;;;;;;;9.75;92.32;96461.59;4868257;29;20064;-74
2020/12/23 07:20:48;;;;;;;3.88;3.15;;;;;;;9.74;91.69;96467.06;4867838;29;20463;-73
2020/12/23 07:23:16;;;;;;;4.90;3.53;;;;;;;9.70;91.73;96471.09;4875684;29;20041;-74
2020/12/23 07:25:45;;;;;;;6.13;3.92;;;;;;;9.68;91.86;96470.50;4869835;29;20052;-73
2020/12/23 07:28:12;;;;;;;4.10;3.63;;;;;;;9.65;91.88;96460.47;4864212;29;20032;-73
2020/12/23 07:30:40;;;;;;;5.65;3.50;;;;;;;9.63;91.95;96465.13;4868889;29;20042;-73
2020/12/23 07:33:20;;;;;;;4.13;3.72;;;;;;;9.60;91.80;96460.31;4875491;29;20029;-74
2020/12/23 07:35:51;;;;;;;4.45;3.75;;;;;;;9.57;92.02;96458.91;4868946;29;20474;-74
2020/12/23 07:38:21;;;;;;;4.38;3.72;;;;;;;9.57;91.70;96458.09;4851702;29;20040;-73
2020/12/23 07:40:47;;;;;;;4.45;3.72;;;;;;;9.54;91.80;96460.13;4869533;29;20418;-74
2020/12/23 07:43:15;;;;;;;6.32;3.95;;;;;;;9.54;91.89;96457.50;4870798;29;20052;-73
2020/12/23 07:45:42;;;;;;;8.05;3.97;;;;;;;9.55;91.92;96463.53;4871180;29;20064;-74
2020/12/23 07:48:14;;;;;;;5.20;3.90;;;;;;;9.55;91.99;96474.84;4868850;29;20063;-73
2020/12/23 07:50:42;;;;;;;4.30;3.80;;;;;;;9.58;92.09;96475.44;4874698;29;20045;-73
2020/12/23 07:53:10;;;;;;;4.28;3.88;;;;;;;9.60;91.92;96473.41;4867585;29;20049;-73
2020/12/23 07:55:37;;;;;;;5.30;4.22;;;;;;;9.63;92.25;96473.78;4870391;29;20046;-74
2020/12/23 07:58:04;;;;;;;4.40;3.60;;;;;;;9.66;92.23;96475.16;4868007;29;20054;-73
2020/12/23 08:00:30;;;;;;;4.65;4.10;;;;;;;9.68;92.42;96473.13;4869743;29;20049;-74
2020/12/23 08:02:56;;;;;;;5.65;3.80;;;;;;;9.71;92.24;96480.59;4871752;29;20076;-73
2020/12/23 08:05:23;;;;;;;4.32;3.70;;;;;;;9.73;92.31;96475.94;4868916;29;20033;-74
2020/12/23 08:07:50;;;;;;;6.32;3.90;;;;;;;9.75;92.18;96471.28;4867851;29;20056;-73
2020/12/23 08:10:19;;;;;;;4.57;3.97;;;;;;;9.75;92.01;96474.72;4875374;29;20451;-74
2020/12/23 08:12:56;;;;;;;5.70;3.83;;;;;;;9.80;91.96;96475.88;4873684;29;20056;-73
2020/12/23 08:15:23;;;;;;;4.22;3.78;;;;;;;9.81;92.12;96475.69;4870780;29;20048;-74
2020/12/23 08:18:02;;;;;;;3.97;3.67;;;;;;;9.84;91.82;96463.97;4872769;29;20383;-73
2020/12/23 08:20:28;;;;;;;6.07;3.80;;;;;;;9.86;91.75;96473.22;4869500;29;20029;-74
2020/12/23 08:22:55;;;;;;;5.63;3.60;;;;;;;9.88;91.54;96475.63;4870662;29;20513;-73
2020/12/23 08:25:22;;;;;;;6.70;4.18;;;;;;;9.89;91.63;96475.44;4867425;29;20029;-73
2020/12/23 08:27:50;;;;;;;4.50;3.75;;;;;;;9.89;91.19;96472.81;4864272;29;20045;-75
2020/12/23 08:30:22;;;;;;;5.88;3.65;;;;;;;9.91;90.91;96467.34;4855996;29;20045;-74
2020/12/23 08:33:02;;;;;;;5.35;3.90;;;;;;;9.92;91.62;96475.00;4860554;29;20053;-73
2020/12/23 08:35:30;;;;;;;6.03;4.13;;;;;;;9.93;91.45;96463.50;4866346;29;20048;-73
2020/12/23 08:37:57;;;;;;;3.60;3.03;;;;;;;9.95;90.49;96466.72;4867510;29;20497;-74
2020/12/23 08:40:23;;;;;;;4.15;3.53;;;;;;;9.96;90.87;96465.69;4869336;29;20045;-73
2020/12/23 08:42:51;;;;;;;3.75;3.35;;;;;;;10.00;91.03;96473.16;4873749;29;20410;-74
2020/12/23 08:45:26;;;;;;;4.88;3.05;;;;;;;10.01;89.87;96469.50;4866466;29;20418;-74
2020/12/23 08:47:54;;;;;;;4.38;3.20;;;;;;;10.04;90.17;96469.09;4867492;29;20053;-73
2020/12/23 08:50:26;;;;;;;4.40;3.22;;;;;;;10.06;90.04;96473.09;4867448;29;20048;-74
2020/12/23 08:52:54;;;;;;;4.85;3.28;;;;;;;10.08;89.72;96467.59;4875793;29;20037;-73
2020/12/23 08:55:23;;;;;;;4.05;3.10;;;;;;;10.09;89.63;96467.41;4873038;29;20493;-73
2020/12/23 08:58:06;;;;;;;4.60;3.17;;;;;;;10.11;88.87;96467.19;4874607;29;21304;-74
2020/12/23 09:00:33;;;;;;;3.55;3.00;;;;;;;10.10;89.43;96463.78;4872561;29;20053;-73
2020/12/23 09:02:59;;;;;;;4.60;3.28;;;;;;;10.13;89.35;96467.78;4873216;29;20045;-73
2020/12/23 09:05:31;;;;;;;3.40;2.95;;;;;;;10.13;89.28;96470.41;4871009;29;20033;-73
2020/12/23 09:08:09;;;;;;;7.60;3.33;;;;;;;10.16;88.99;96469.97;4870649;29;20037;-73
2020/12/23 09:10:36;;;;;;;6.57;3.35;;;;;;;10.16;89.28;96462.94;4881854;29;20409;-73
2020/12/23 09:13:12;;;;;;;5.20;3.38;;;;;;;10.22;88.89;96460.44;4868497;29;20068;-73
2020/12/23 09:15:40;;;;;;;7.53;3.08;;;;;;;10.25;89.11;96463.47;4868209;29;20045;-73
2020/12/23 09:18:06;;;;;;;6.35;3.88;;;;;;;10.28;88.85;96460.41;4874406;29;20041;-73
2020/12/23 09:20:35;;;;;;;5.57;3.35;;;;;;;10.31;88.44;96460.00;4874972;29;20042;-73
2020/12/23 09:23:03;;;;;;;4.10;3.20;;;;;;;10.34;87.96;96464.81;4872115;29;20040;-74
2020/12/23 09:25:31;;;;;;;4.05;3.30;;;;;;;10.38;87.98;96470.44;4874909;29;20053;-72
2020/12/23 09:28:09;;;;;;;4.53;3.25;;;;;;;10.40;87.54;96464.97;4868476;29;20047;-73
2020/12/23 09:30:41;;;;;;;4.40;3.70;;;;;;;10.42;87.86;96468.19;4854344;29;20053;-73
2020/12/23 09:33:10;;;;;;;5.07;3.47;;;;;;;10.45;87.92;96468.53;4862585;29;20049;-73
2020/12/23 09:35:37;;;;;;;4.88;3.00;;;;;;;10.46;87.96;96467.53;4873939;29;20041;-72
2020/12/23 09:38:14;;;;;;;4.20;3.40;;;;;;;10.50;87.56;96460.03;4866446;29;20056;-72
2020/12/23 09:40:48;;;;;;;3.55;3.13;;;;;;;10.50;87.43;96458.22;4871172;29;20045;-72
2020/12/23 09:43:35;;;;;;;4.25;3.58;;;;;;;10.54;86.85;96454.16;4873045;29;20467;-72
2020/12/23 09:46:05;;;;;;;3.55;3.22;;;;;;;10.55;87.45;96458.34;4875973;29;20061;-72
2020/12/23 09:48:32;;;;;;;4.70;3.33;;;;;;;10.57;87.41;96447.66;4869695;29;20033;-72
2020/12/23 09:50:58;;;;;;;5.50;3.80;;;;;;;10.60;87.32;96447.22;4871486;29;20505;-72
2020/12/23 09:53:25;;;;;;;3.88;3.45;;;;;;;10.63;87.03;96443.38;4874953;29;20429;-72
2020/12/23 09:55:52;;;;;;;4.63;3.55;;;;;;;10.68;87.26;96443.50;4872946;29;20059;-74
2020/12/23 09:58:19;;;;;;;4.10;3.70;;;;;;;10.71;87.27;96433.38;4866925;29;20037;-72
2020/12/23 10:00:47;;;;;;;5.28;3.60;;;;;;;10.75;86.93;96433.72;4872854;29;20045;-72
2020/12/23 10:03:14;;;;;;;4.90;4.00;;;;;;;10.81;86.66;96438.09;4873711;29;20081;-73
2020/12/23 10:05:41;;;;;;;5.15;3.67;;;;;;;10.84;86.53;96431.66;4872055;29;20041;-72
2020/12/23 10:08:08;;;;;;;6.43;3.88;;;;;;;10.88;86.61;96428.34;4869757;29;20053;-73
2020/12/23 10:10:35;;;;;;;5.53;3.90;;;;;;;10.92;86.76;96424.28;4872175;29;20060;-72
2020/12/23 10:13:02;;;;;;;3.00;1.70;;;;;;;11.06;87.68;96429.34;4869320;29;20053;-73
2020/12/23 10:15:28;;;;;;;2.45;2.03;;;;;;;11.40;88.43;96425.25;4875019;29;20041;-73
2020/12/23 10:17:55;;;;;;;3.92;2.40;;;;;;;11.74;87.81;96413.25;4871612;29;20383;-72
2020/12/23 10:20:21;;;;;;;4.72;2.78;;;;;;;11.95;86.57;96404.06;4869882;29;20052;-73
2020/12/23 10:22:47;;;;;;;5.57;3.10;;;;;;;12.13;86.17;96391.84;4871984;29;20062;-73
2020/12/23 10:25:13;;;;;;;4.55;3.33;;;;;;;12.22;84.75;96385.22;4873136;29;20398;-73
2020/12/23 10:27:40;;;;;;;3.75;2.65;;;;;;;12.35;84.83;96392.06;4866893;29;20049;-73
2020/12/23 10:30:08;;;;;;;5.72;3.50;;;;;;;12.48;84.46;96385.78;4872556;29;20049;-73
2020/12/23 10:32:35;;;;;;;4.00;3.30;;;;;;;12.43;83.69;96380.38;4877128;29;20387;-75
2020/12/23 10:35:02;;;;;;;4.93;3.67;;;;;;;12.34;83.08;96374.69;4874385;29;20033;-72
2020/12/23 10:37:29;;;;;;;6.10;3.28;;;;;;;12.21;82.91;96369.69;4872089;29;20478;-73
2020/12/23 10:39:56;;;;;;;5.65;3.58;;;;;;;12.11;82.90;96367.59;4871967;29;20045;-73
2020/12/23 10:42:26;;;;;;;5.15;3.40;;;;;;;12.02;82.70;96353.22;4870076;29;20048;-73
2020/12/23 10:44:52;;;;;;;6.43;3.45;;;;;;;11.92;82.74;96351.94;4851972;29;20049;-72
2020/12/23 10:47:19;;;;;;;4.68;3.50;;;;;;;11.84;82.72;96352.25;4867205;29;20060;-73
2020/12/23 10:49:45;;;;;;;4.55;3.42;;;;;;;11.77;82.78;96343.69;4871652;29;20407;-72
2020/12/23 10:52:11;;;;;;;4.82;3.35;;;;;;;11.78;83.15;96342.69;4873875;29;20483;-73
2020/12/23 10:54:37;;;;;;;3.80;3.42;;;;;;;11.81;83.15;96342.22;4871359;29;20045;-73
2020/12/23 10:57:04;;;;;;;3.47;2.90;;;;;;;11.84;83.34;96339.13;4866484;29;20037;-73
2020/12/23 10:59:31;;;;;;;4.18;3.25;;;;;;;11.85;82.72;96340.72;4871364;29;20041;-73
2020/12/23 11:01:57;;;;;;;4.55;3.30;;;;;;;11.86;83.04;96334.44;4869053;29;20045;-73
2020/12/23 11:04:23;;;;;;;6.10;4.15;;;;;;;11.84;82.90;96328.59;4873755;29;20046;-72
2020/12/23 11:06:50;;;;;;;7.10;3.75;;;;;;;11.85;82.81;96334.69;4869516;29;20048;-73
2020/12/23 11:09:17;;;;;;;5.68;4.22;;;;;;;11.84;83.17;96328.59;4866607;29;20072;-73
2020/12/23 11:11:50;;;;;;;4.07;3.63;;;;;;;11.84;82.59;96317.31;4870828;29;20471;-73
2020/12/23 11:14:16;;;;;;;4.40;3.53;;;;;;;11.83;82.83;96326.22;4871934;29;20046;-73
2020/12/23 11:16:51;;;;;;;7.65;4.45;;;;;;;11.78;82.60;96322.47;4871430;29;20399;-74
2020/12/23 11:19:21;;;;;;;6.10;3.67;;;;;;;11.74;82.86;96315.28;4855217;29;20040;-73
2020/12/23 11:21:47;;;;;;;4.78;4.28;;;;;;;11.71;82.66;96313.06;4870814;29;20041;-72
2020/12/23 11:24:14;;;;;;;5.28;3.90;;;;;;;11.69;82.87;96310.66;4872723;29;20053;-72
2020/12/23 11:26:40;;;;;;;5.65;4.18;;;;;;;11.70;83.01;96301.00;4871606;29;20470;-73
2020/12/23 11:29:07;;;;;;;4.25;3.78;;;;;;;11.70;82.98;96293.91;4869821;29;20500;-72
2020/12/23 11:31:33;;;;;;;5.97;4.45;;;;;;;11.73;83.27;96290.81;4866674;29;20414;-73
2020/12/23 11:34:00;;;;;;;8.30;5.60;;;;;;;11.75;83.24;96280.88;4872636;29;20491;-73
2020/12/23 11:36:27;;;;;;;7.47;4.90;;;;;;;11.79;83.40;96289.88;4874180;29;20040;-73
2020/12/23 11:38:53;;;;;;;6.85;5.15;;;;;;;11.81;83.42;96283.63;4871411;29;20371;-72
2020/12/23 11:41:19;;;;;;;6.95;4.95;;;;;;;11.83;83.39;96282.34;4866193;29;20033;-72
2020/12/23 11:43:46;;;;;;;8.00;4.80;;;;;;;11.85;83.38;96277.66;4865070;29;20390;-75